sensor_id;sensor_type;location;lat;lon;timestamp;pressure;altitude;pressure_sealevel;temperature;humidity
55022;BME280;68328;35.990;-86.756;2023-12-20T00:00:22;100241.66;;;9.64;25.12
55022;BME280;68328;35.990;-86.756;2023-12-20T00:02:43;100240.25;;;9.72;25.15
55022;BME280;68328;35.990;-86.756;2023-12-20T00:05:08;100243.99;;;9.67;25.10
55022;BME280;68328;35.990;-86.756;2023-12-20T00:07:35;100243.57;;;9.53;24.48
55022;BME280;68328;35.990;-86.756;2023-12-20T00:10:00;100245.17;;;9.99;24.98
55022;BME280;68328;35.990;-86.756;2023-12-20T00:12:24;100245.28;;;9.92;25.33
55022;BME280;68328;35.990;-86.756;2023-12-20T00:14:51;100244.56;;;9.35;25.59
55022;BME280;68328;35.990;-86.756;2023-12-20T00:17:15;100246.44;;;9.54;25.71
55022;BME280;68328;35.990;-86.756;2023-12-20T00:19:41;100241.03;;;9.44;25.82
55022;BME280;68328;35.990;-86.756;2023-12-20T00:22:06;100234.24;;;9.10;26.08
55022;BME280;68328;35.990;-86.756;2023-12-20T00:24:31;100229.90;;;9.45;26.21
55022;BME280;68328;35.990;-86.756;2023-12-20T00:26:57;100226.17;;;9.33;26.42
55022;BME280;68328;35.990;-86.756;2023-12-20T00:29:22;100228.93;;;9.22;26.55
55022;BME280;68328;35.990;-86.756;2023-12-20T00:31:50;100229.61;;;9.23;26.38
55022;BME280;68328;35.990;-86.756;2023-12-20T00:34:13;100231.12;;;9.21;25.72
55022;BME280;68328;35.990;-86.756;2023-12-20T00:36:38;100234.00;;;9.09;25.53
55022;BME280;68328;35.990;-86.756;2023-12-20T00:39:03;100237.12;;;8.99;25.29
55022;BME280;68328;35.990;-86.756;2023-12-20T00:41:29;100240.17;;;9.00;25.61
55022;BME280;68328;35.990;-86.756;2023-12-20T00:43:54;100245.48;;;8.96;25.78
55022;BME280;68328;35.990;-86.756;2023-12-20T00:46:20;100246.04;;;9.14;25.95
55022;BME280;68328;35.990;-86.756;2023-12-20T00:48:45;100243.23;;;8.86;26.38
55022;BME280;68328;35.990;-86.756;2023-12-20T00:51:11;100239.51;;;8.79;26.35
55022;BME280;68328;35.990;-86.756;2023-12-20T00:53:36;100239.85;;;8.73;26.49
55022;BME280;68328;35.990;-86.756;2023-12-20T00:56:02;100244.92;;;8.95;26.62
55022;BME280;68328;35.990;-86.756;2023-12-20T00:58:28;100247.04;;;8.72;26.26
55022;BME280;68328;35.990;-86.756;2023-12-20T01:00:52;100243.96;;;8.93;26.24
55022;BME280;68328;35.990;-86.756;2023-12-20T01:03:18;100238.48;;;9.11;26.50
55022;BME280;68328;35.990;-86.756;2023-12-20T01:05:45;100227.39;;;8.57;26.67
55022;BME280;68328;35.990;-86.756;2023-12-20T01:08:11;100221.37;;;9.02;26.90
55022;BME280;68328;35.990;-86.756;2023-12-20T01:10:34;100220.77;;;8.93;26.88
55022;BME280;68328;35.990;-86.756;2023-12-20T01:13:00;100223.06;;;8.87;26.42
55022;BME280;68328;35.990;-86.756;2023-12-20T01:15:29;100220.38;;;8.60;26.14
55022;BME280;68328;35.990;-86.756;2023-12-20T01:17:51;100223.96;;;8.81;26.37
55022;BME280;68328;35.990;-86.756;2023-12-20T01:20:18;100227.13;;;8.46;26.65
55022;BME280;68328;35.990;-86.756;2023-12-20T01:22:41;100228.86;;;8.62;26.44
55022;BME280;68328;35.990;-86.756;2023-12-20T01:25:07;100230.67;;;8.56;26.42
55022;BME280;68328;35.990;-86.756;2023-12-20T01:27:32;100231.70;;;8.53;26.33
55022;BME280;68328;35.990;-86.756;2023-12-20T01:29:58;100239.69;;;8.51;26.84
55022;BME280;68328;35.990;-86.756;2023-12-20T01:32:23;100239.01;;;8.46;27.16
55022;BME280;68328;35.990;-86.756;2023-12-20T01:34:48;100236.20;;;8.17;27.31
55022;BME280;68328;35.990;-86.756;2023-12-20T01:37:14;100232.35;;;8.37;27.51
55022;BME280;68328;35.990;-86.756;2023-12-20T01:39:39;100234.91;;;8.39;27.29
55022;BME280;68328;35.990;-86.756;2023-12-20T01:42:06;100235.20;;;8.35;27.10
55022;BME280;68328;35.990;-86.756;2023-12-20T01:44:30;100237.25;;;8.28;27.28
55022;BME280;68328;35.990;-86.756;2023-12-20T01:46:55;100235.36;;;8.19;27.54
55022;BME280;68328;35.990;-86.756;2023-12-20T01:49:22;100230.38;;;8.20;27.27
55022;BME280;68328;35.990;-86.756;2023-12-20T01:51:47;100231.66;;;8.24;27.27
55022;BME280;68328;35.990;-86.756;2023-12-20T01:54:12;100230.39;;;8.18;26.97
55022;BME280;68328;35.990;-86.756;2023-12-20T01:56:39;100225.85;;;8.35;26.75
55022;BME280;68328;35.990;-86.756;2023-12-20T01:59:02;100230.67;;;8.12;26.63
55022;BME280;68328;35.990;-86.756;2023-12-20T02:01:28;100229.92;;;8.25;26.74
55022;BME280;68328;35.990;-86.756;2023-12-20T02:03:56;100230.82;;;8.29;27.08
55022;BME280;68328;35.990;-86.756;2023-12-20T02:06:22;100231.20;;;8.24;27.35
55022;BME280;68328;35.990;-86.756;2023-12-20T02:08:44;100232.16;;;8.36;27.51
55022;BME280;68328;35.990;-86.756;2023-12-20T02:11:10;100229.19;;;8.23;27.89
55022;BME280;68328;35.990;-86.756;2023-12-20T02:13:36;100225.07;;;7.85;28.00
55022;BME280;68328;35.990;-86.756;2023-12-20T02:16:02;100228.63;;;7.81;27.91
55022;BME280;68328;35.990;-86.756;2023-12-20T02:18:25;100227.71;;;7.78;27.75
55022;BME280;68328;35.990;-86.756;2023-12-20T02:20:51;100229.94;;;7.68;27.37
55022;BME280;68328;35.990;-86.756;2023-12-20T02:23:16;100232.26;;;7.85;26.79
55022;BME280;68328;35.990;-86.756;2023-12-20T02:25:42;100222.42;;;7.76;26.79
55022;BME280;68328;35.990;-86.756;2023-12-20T02:28:07;100220.42;;;7.74;27.43
55022;BME280;68328;35.990;-86.756;2023-12-20T02:30:33;100220.28;;;7.75;27.52
55022;BME280;68328;35.990;-86.756;2023-12-20T02:33:00;100221.80;;;7.78;27.39
55022;BME280;68328;35.990;-86.756;2023-12-20T02:35:23;100213.68;;;7.53;27.17
55022;BME280;68328;35.990;-86.756;2023-12-20T02:37:49;100215.86;;;7.56;27.15
55022;BME280;68328;35.990;-86.756;2023-12-20T02:40:14;100220.01;;;8.00;27.15
55022;BME280;68328;35.990;-86.756;2023-12-20T02:42:42;100222.09;;;7.74;27.42
55022;BME280;68328;35.990;-86.756;2023-12-20T02:45:07;100223.48;;;7.42;27.64
55022;BME280;68328;35.990;-86.756;2023-12-20T02:47:31;100226.08;;;7.35;27.63
55022;BME280;68328;35.990;-86.756;2023-12-20T02:49:56;100229.42;;;7.45;27.36
55022;BME280;68328;35.990;-86.756;2023-12-20T02:52:22;100231.97;;;7.64;27.38
55022;BME280;68328;35.990;-86.756;2023-12-20T02:54:48;100230.36;;;7.66;27.43
55022;BME280;68328;35.990;-86.756;2023-12-20T02:58:14;100238.57;;;6.84;28.10
55022;BME280;68328;35.990;-86.756;2023-12-20T03:00:59;100244.45;;;7.14;28.06
55022;BME280;68328;35.990;-86.756;2023-12-20T03:03:24;100248.31;;;7.28;27.71
55022;BME280;68328;35.990;-86.756;2023-12-20T03:05:49;100245.06;;;7.13;27.60
55022;BME280;68328;35.990;-86.756;2023-12-20T03:08:16;100246.75;;;7.46;27.97
55022;BME280;68328;35.990;-86.756;2023-12-20T03:10:40;100245.67;;;7.46;28.25
55022;BME280;68328;35.990;-86.756;2023-12-20T03:13:07;100241.60;;;7.26;28.31
55022;BME280;68328;35.990;-86.756;2023-12-20T03:15:32;100227.43;;;7.49;28.74
55022;BME280;68328;35.990;-86.756;2023-12-20T03:17:57;100220.63;;;7.23;28.72
55022;BME280;68328;35.990;-86.756;2023-12-20T03:20:22;100213.08;;;7.49;28.56
55022;BME280;68328;35.990;-86.756;2023-12-20T03:22:46;100212.03;;;7.41;28.63
55022;BME280;68328;35.990;-86.756;2023-12-20T03:25:12;100214.27;;;7.08;28.68
55022;BME280;68328;35.990;-86.756;2023-12-20T03:27:38;100215.35;;;7.31;28.86
55022;BME280;68328;35.990;-86.756;2023-12-20T03:30:06;100216.86;;;7.54;28.78
55022;BME280;68328;35.990;-86.756;2023-12-20T03:32:29;100212.75;;;7.55;28.89
55022;BME280;68328;35.990;-86.756;2023-12-20T03:34:54;100211.60;;;7.33;28.84
55022;BME280;68328;35.990;-86.756;2023-12-20T03:37:19;100216.30;;;7.26;28.51
55022;BME280;68328;35.990;-86.756;2023-12-20T03:39:45;100213.92;;;7.19;28.64
55022;BME280;68328;35.990;-86.756;2023-12-20T03:42:10;100207.16;;;6.66;28.68
55022;BME280;68328;35.990;-86.756;2023-12-20T03:44:39;100203.25;;;7.17;28.63
55022;BME280;68328;35.990;-86.756;2023-12-20T03:47:01;100202.84;;;6.93;28.52
55022;BME280;68328;35.990;-86.756;2023-12-20T03:49:26;100209.25;;;7.23;28.41
55022;BME280;68328;35.990;-86.756;2023-12-20T03:51:52;100204.91;;;7.09;28.59
55022;BME280;68328;35.990;-86.756;2023-12-20T03:54:17;100206.12;;;7.16;28.72
55022;BME280;68328;35.990;-86.756;2023-12-20T03:56:43;100210.49;;;7.35;28.95
55022;BME280;68328;35.990;-86.756;2023-12-20T03:59:07;100213.51;;;6.95;28.42
55022;BME280;68328;35.990;-86.756;2023-12-20T04:01:33;100212.26;;;7.20;28.46
55022;BME280;68328;35.990;-86.756;2023-12-20T04:03:59;100210.47;;;7.21;28.56
55022;BME280;68328;35.990;-86.756;2023-12-20T04:06:26;100218.31;;;7.39;28.65
55022;BME280;68328;35.990;-86.756;2023-12-20T04:08:49;100223.75;;;6.85;28.60
55022;BME280;68328;35.990;-86.756;2023-12-20T04:11:15;100231.17;;;7.05;28.77
55022;BME280;68328;35.990;-86.756;2023-12-20T04:13:41;100237.54;;;7.27;28.89
55022;BME280;68328;35.990;-86.756;2023-12-20T04:16:08;100239.82;;;6.92;29.07
55022;BME280;68328;35.990;-86.756;2023-12-20T04:18:32;100243.99;;;7.00;29.31
55022;BME280;68328;35.990;-86.756;2023-12-20T04:20:57;100240.89;;;7.10;29.32
55022;BME280;68328;35.990;-86.756;2023-12-20T04:23:23;100238.79;;;6.60;29.15
55022;BME280;68328;35.990;-86.756;2023-12-20T04:25:48;100249.98;;;7.12;28.94
55022;BME280;68328;35.990;-86.756;2023-12-20T04:28:13;100250.20;;;7.06;29.12
55022;BME280;68328;35.990;-86.756;2023-12-20T04:30:38;100250.08;;;6.78;29.15
55022;BME280;68328;35.990;-86.756;2023-12-20T04:33:05;100254.78;;;7.04;29.25
55022;BME280;68328;35.990;-86.756;2023-12-20T04:35:29;100251.42;;;7.01;29.30
55022;BME280;68328;35.990;-86.756;2023-12-20T04:37:55;100252.33;;;7.21;28.57
55022;BME280;68328;35.990;-86.756;2023-12-20T04:40:20;100259.47;;;6.92;28.75
55022;BME280;68328;35.990;-86.756;2023-12-20T04:42:46;100266.59;;;7.01;28.42
55022;BME280;68328;35.990;-86.756;2023-12-20T04:45:12;100266.12;;;6.57;28.44
55022;BME280;68328;35.990;-86.756;2023-12-20T04:47:36;100267.92;;;6.61;28.80
55022;BME280;68328;35.990;-86.756;2023-12-20T04:50:02;100263.46;;;6.92;29.15
55022;BME280;68328;35.990;-86.756;2023-12-20T04:52:27;100260.09;;;6.70;29.40
55022;BME280;68328;35.990;-86.756;2023-12-20T04:54:53;100259.81;;;7.15;29.48
55022;BME280;68328;35.990;-86.756;2023-12-20T04:57:19;100255.33;;;6.58;29.63
55022;BME280;68328;35.990;-86.756;2023-12-20T04:59:45;100253.76;;;6.77;29.53
55022;BME280;68328;35.990;-86.756;2023-12-20T05:02:09;100247.28;;;6.47;29.05
55022;BME280;68328;35.990;-86.756;2023-12-20T05:04:37;100245.17;;;6.56;28.69
55022;BME280;68328;35.990;-86.756;2023-12-20T05:07:01;100244.90;;;6.48;29.00
55022;BME280;68328;35.990;-86.756;2023-12-20T05:09:25;100247.08;;;6.53;29.06
55022;BME280;68328;35.990;-86.756;2023-12-20T05:11:52;100252.16;;;6.49;28.95
55022;BME280;68328;35.990;-86.756;2023-12-20T05:14:16;100253.15;;;6.50;29.08
55022;BME280;68328;35.990;-86.756;2023-12-20T05:16:42;100250.62;;;6.81;29.25
55022;BME280;68328;35.990;-86.756;2023-12-20T05:19:07;100251.32;;;6.38;29.50
55022;BME280;68328;35.990;-86.756;2023-12-20T05:21:33;100251.31;;;6.41;29.52
55022;BME280;68328;35.990;-86.756;2023-12-20T05:23:59;100251.14;;;6.50;29.46
55022;BME280;68328;35.990;-86.756;2023-12-20T05:26:24;100245.25;;;6.60;29.64
55022;BME280;68328;35.990;-86.756;2023-12-20T05:28:50;100241.36;;;6.67;29.37
55022;BME280;68328;35.990;-86.756;2023-12-20T05:31:14;100237.20;;;6.89;28.15
55022;BME280;68328;35.990;-86.756;2023-12-20T05:33:41;100234.72;;;6.67;28.43
55022;BME280;68328;35.990;-86.756;2023-12-20T05:36:07;100230.75;;;6.69;28.73
55022;BME280;68328;35.990;-86.756;2023-12-20T05:38:31;100232.56;;;6.71;28.85
55022;BME280;68328;35.990;-86.756;2023-12-20T05:40:56;100231.45;;;6.96;29.10
55022;BME280;68328;35.990;-86.756;2023-12-20T05:43:21;100229.45;;;6.71;29.25
55022;BME280;68328;35.990;-86.756;2023-12-20T05:45:46;100225.39;;;6.62;29.37
55022;BME280;68328;35.990;-86.756;2023-12-20T05:48:12;100221.35;;;7.00;29.37
55022;BME280;68328;35.990;-86.756;2023-12-20T05:50:37;100217.64;;;6.41;29.35
55022;BME280;68328;35.990;-86.756;2023-12-20T05:53:03;100221.72;;;6.58;29.57
55022;BME280;68328;35.990;-86.756;2023-12-20T05:55:28;100223.09;;;6.15;29.41
55022;BME280;68328;35.990;-86.756;2023-12-20T05:57:54;100225.42;;;6.39;29.08
55022;BME280;68328;35.990;-86.756;2023-12-20T06:00:20;100229.19;;;6.23;29.14
55022;BME280;68328;35.990;-86.756;2023-12-20T06:02:45;100239.08;;;6.20;29.05
55022;BME280;68328;35.990;-86.756;2023-12-20T06:05:12;100241.78;;;6.24;29.31
55022;BME280;68328;35.990;-86.756;2023-12-20T06:07:36;100233.18;;;6.05;29.28
55022;BME280;68328;35.990;-86.756;2023-12-20T06:10:01;100235.64;;;6.08;29.62
55022;BME280;68328;35.990;-86.756;2023-12-20T06:12:26;100231.86;;;6.37;29.66
55022;BME280;68328;35.990;-86.756;2023-12-20T06:14:51;100222.50;;;6.10;30.04
55022;BME280;68328;35.990;-86.756;2023-12-20T06:17:17;100221.05;;;6.36;29.95
55022;BME280;68328;35.990;-86.756;2023-12-20T06:19:42;100222.68;;;6.36;29.95
55022;BME280;68328;35.990;-86.756;2023-12-20T06:22:08;100232.20;;;6.28;29.68
55022;BME280;68328;35.990;-86.756;2023-12-20T06:24:35;100242.42;;;5.94;29.16
55022;BME280;68328;35.990;-86.756;2023-12-20T06:26:59;100240.75;;;6.16;29.21
55022;BME280;68328;35.990;-86.756;2023-12-20T06:29:24;100239.93;;;5.91;29.38
55022;BME280;68328;35.990;-86.756;2023-12-20T06:31:50;100232.89;;;5.89;30.15
55022;BME280;68328;35.990;-86.756;2023-12-20T06:34:15;100222.26;;;6.19;30.24
55022;BME280;68328;35.990;-86.756;2023-12-20T06:36:42;100218.47;;;6.25;30.25
55022;BME280;68328;35.990;-86.756;2023-12-20T06:39:06;100218.56;;;6.29;30.27
55022;BME280;68328;35.990;-86.756;2023-12-20T06:41:32;100214.99;;;6.20;29.76
55022;BME280;68328;35.990;-86.756;2023-12-20T06:43:57;100212.20;;;6.21;29.88
55022;BME280;68328;35.990;-86.756;2023-12-20T06:46:27;100210.64;;;6.02;30.27
55022;BME280;68328;35.990;-86.756;2023-12-20T06:48:49;100206.02;;;6.02;30.39
55022;BME280;68328;35.990;-86.756;2023-12-20T06:51:16;100203.72;;;6.01;30.51
55022;BME280;68328;35.990;-86.756;2023-12-20T06:53:39;100202.03;;;6.21;30.49
55022;BME280;68328;35.990;-86.756;2023-12-20T06:56:05;100201.63;;;6.22;30.56
55022;BME280;68328;35.990;-86.756;2023-12-20T06:58:30;100199.85;;;6.21;30.45
55022;BME280;68328;35.990;-86.756;2023-12-20T07:00:56;100200.34;;;6.18;30.51
55022;BME280;68328;35.990;-86.756;2023-12-20T07:03:23;100200.45;;;6.09;30.42
55022;BME280;68328;35.990;-86.756;2023-12-20T07:05:47;100203.72;;;6.05;30.40
55022;BME280;68328;35.990;-86.756;2023-12-20T07:08:12;100203.75;;;6.05;30.50
55022;BME280;68328;35.990;-86.756;2023-12-20T07:10:37;100202.61;;;6.05;30.36
55022;BME280;68328;35.990;-86.756;2023-12-20T07:13:03;100201.68;;;6.06;30.16
55022;BME280;68328;35.990;-86.756;2023-12-20T07:15:29;100197.66;;;5.75;30.21
55022;BME280;68328;35.990;-86.756;2023-12-20T07:17:54;100198.86;;;5.94;30.56
55022;BME280;68328;35.990;-86.756;2023-12-20T07:20:19;100199.25;;;5.70;30.68
55022;BME280;68328;35.990;-86.756;2023-12-20T07:22:45;100198.60;;;5.99;30.60
55022;BME280;68328;35.990;-86.756;2023-12-20T07:25:10;100206.09;;;6.02;30.57
55022;BME280;68328;35.990;-86.756;2023-12-20T07:27:37;100215.07;;;5.86;30.32
55022;BME280;68328;35.990;-86.756;2023-12-20T07:30:01;100223.60;;;5.52;30.52
55022;BME280;68328;35.990;-86.756;2023-12-20T07:32:27;100225.66;;;5.72;30.45
55022;BME280;68328;35.990;-86.756;2023-12-20T07:34:52;100230.17;;;5.71;30.54
55022;BME280;68328;35.990;-86.756;2023-12-20T07:37:17;100228.19;;;5.75;30.70
55022;BME280;68328;35.990;-86.756;2023-12-20T07:39:44;100229.19;;;5.78;30.80
55022;BME280;68328;35.990;-86.756;2023-12-20T07:42:09;100228.95;;;5.81;30.91
55022;BME280;68328;35.990;-86.756;2023-12-20T07:44:34;100220.61;;;5.76;31.13
55022;BME280;68328;35.990;-86.756;2023-12-20T07:46:59;100221.22;;;5.76;31.07
55022;BME280;68328;35.990;-86.756;2023-12-20T07:49:25;100221.65;;;5.70;30.87
55022;BME280;68328;35.990;-86.756;2023-12-20T07:51:51;100226.90;;;5.86;30.60
55022;BME280;68328;35.990;-86.756;2023-12-20T07:54:16;100228.82;;;5.61;30.64
55022;BME280;68328;35.990;-86.756;2023-12-20T07:56:41;100229.15;;;5.58;30.82
55022;BME280;68328;35.990;-86.756;2023-12-20T07:59:07;100232.17;;;5.51;31.06
55022;BME280;68328;35.990;-86.756;2023-12-20T08:01:32;100231.74;;;5.50;31.19
55022;BME280;68328;35.990;-86.756;2023-12-20T08:03:59;100231.73;;;5.51;31.35
55022;BME280;68328;35.990;-86.756;2023-12-20T08:06:23;100233.56;;;5.54;31.26
55022;BME280;68328;35.990;-86.756;2023-12-20T08:08:50;100236.20;;;5.50;30.50
55022;BME280;68328;35.990;-86.756;2023-12-20T08:11:14;100244.90;;;5.47;30.48
55022;BME280;68328;35.990;-86.756;2023-12-20T08:13:41;100249.87;;;5.47;30.78
55022;BME280;68328;35.990;-86.756;2023-12-20T08:16:06;100257.60;;;5.45;30.69
55022;BME280;68328;35.990;-86.756;2023-12-20T08:18:30;100265.58;;;5.41;30.68
55022;BME280;68328;35.990;-86.756;2023-12-20T08:20:56;100269.18;;;5.59;30.50
55022;BME280;68328;35.990;-86.756;2023-12-20T08:23:21;100263.55;;;5.40;30.56
55022;BME280;68328;35.990;-86.756;2023-12-20T08:25:47;100258.28;;;5.45;30.62
55022;BME280;68328;35.990;-86.756;2023-12-20T08:28:12;100256.21;;;5.47;30.35
55022;BME280;68328;35.990;-86.756;2023-12-20T08:30:38;100261.92;;;5.71;30.75
55022;BME280;68328;35.990;-86.756;2023-12-20T08:33:04;100270.06;;;5.51;30.63
55022;BME280;68328;35.990;-86.756;2023-12-20T08:35:29;100275.62;;;5.96;30.79
55022;BME280;68328;35.990;-86.756;2023-12-20T08:37:54;100271.30;;;5.48;30.86
55022;BME280;68328;35.990;-86.756;2023-12-20T08:40:20;100262.34;;;5.67;30.97
55022;BME280;68328;35.990;-86.756;2023-12-20T08:42:45;100264.11;;;5.96;30.84
55022;BME280;68328;35.990;-86.756;2023-12-20T08:45:11;100268.78;;;5.58;30.17
55022;BME280;68328;35.990;-86.756;2023-12-20T08:47:36;100269.06;;;5.37;30.47
55022;BME280;68328;35.990;-86.756;2023-12-20T08:50:03;100273.64;;;5.92;30.70
55022;BME280;68328;35.990;-86.756;2023-12-20T08:52:27;100279.26;;;5.49;30.48
55022;BME280;68328;35.990;-86.756;2023-12-20T08:54:53;100278.02;;;5.52;30.48
55022;BME280;68328;35.990;-86.756;2023-12-20T08:57:19;100276.40;;;5.41;31.24
55022;BME280;68328;35.990;-86.756;2023-12-20T08:59:43;100279.06;;;5.56;30.93
55022;BME280;68328;35.990;-86.756;2023-12-20T09:02:11;100281.01;;;5.34;30.59
55022;BME280;68328;35.990;-86.756;2023-12-20T09:04:34;100278.93;;;5.35;30.52
55022;BME280;68328;35.990;-86.756;2023-12-20T09:07:00;100275.72;;;5.83;30.74
55022;BME280;68328;35.990;-86.756;2023-12-20T09:09:27;100271.98;;;5.32;30.80
55022;BME280;68328;35.990;-86.756;2023-12-20T09:11:52;100270.54;;;5.83;30.90
55022;BME280;68328;35.990;-86.756;2023-12-20T09:14:17;100272.72;;;5.36;30.99
55022;BME280;68328;35.990;-86.756;2023-12-20T09:16:43;100279.03;;;5.58;31.16
55022;BME280;68328;35.990;-86.756;2023-12-20T09:19:07;100286.63;;;5.28;31.08
55022;BME280;68328;35.990;-86.756;2023-12-20T09:21:34;100292.12;;;5.31;31.21
55022;BME280;68328;35.990;-86.756;2023-12-20T09:23:58;100298.26;;;5.31;31.26
55022;BME280;68328;35.990;-86.756;2023-12-20T09:26:24;100301.52;;;5.35;31.25
55022;BME280;68328;35.990;-86.756;2023-12-20T09:28:49;100299.58;;;5.35;30.93
55022;BME280;68328;35.990;-86.756;2023-12-20T09:31:15;100291.45;;;5.37;31.05
55022;BME280;68328;35.990;-86.756;2023-12-20T09:33:41;100290.16;;;5.37;30.96
55022;BME280;68328;35.990;-86.756;2023-12-20T09:36:06;100291.92;;;5.29;30.71
55022;BME280;68328;35.990;-86.756;2023-12-20T09:38:31;100296.27;;;5.46;30.52
55022;BME280;68328;35.990;-86.756;2023-12-20T09:40:57;100297.66;;;5.72;30.62
55022;BME280;68328;35.990;-86.756;2023-12-20T09:43:24;100291.53;;;5.47;31.26
55022;BME280;68328;35.990;-86.756;2023-12-20T09:45:53;100294.29;;;5.22;30.96
55022;BME280;68328;35.990;-86.756;2023-12-20T09:48:14;100291.62;;;5.70;31.06
55022;BME280;68328;35.990;-86.756;2023-12-20T09:50:40;100286.71;;;5.46;31.19
55022;BME280;68328;35.990;-86.756;2023-12-20T09:53:05;100285.02;;;5.65;31.31
55022;BME280;68328;35.990;-86.756;2023-12-20T09:55:31;100288.85;;;5.41;31.41
55022;BME280;68328;35.990;-86.756;2023-12-20T09:57:55;100291.46;;;5.42;31.32
55022;BME280;68328;35.990;-86.756;2023-12-20T10:00:21;100293.96;;;5.42;31.28
55022;BME280;68328;35.990;-86.756;2023-12-20T10:02:56;100295.09;;;5.12;31.00
55022;BME280;68328;35.990;-86.756;2023-12-20T10:05:17;100295.73;;;5.09;31.07
55022;BME280;68328;35.990;-86.756;2023-12-20T10:07:37;100296.50;;;5.26;31.08
55022;BME280;68328;35.990;-86.756;2023-12-20T10:10:05;100300.69;;;5.21;31.10
55022;BME280;68328;35.990;-86.756;2023-12-20T10:12:28;100300.49;;;5.48;31.21
55022;BME280;68328;35.990;-86.756;2023-12-20T10:14:55;100298.97;;;5.26;31.38
55022;BME280;68328;35.990;-86.756;2023-12-20T10:17:19;100298.07;;;5.35;31.07
55022;BME280;68328;35.990;-86.756;2023-12-20T10:19:45;100295.87;;;5.67;31.07
55022;BME280;68328;35.990;-86.756;2023-12-20T10:22:10;100296.53;;;5.20;31.11
55022;BME280;68328;35.990;-86.756;2023-12-20T10:24:36;100302.87;;;5.42;31.08
55022;BME280;68328;35.990;-86.756;2023-12-20T10:27:03;100305.11;;;5.24;31.00
55022;BME280;68328;35.990;-86.756;2023-12-20T10:29:27;100308.63;;;5.22;30.82
55022;BME280;68328;35.990;-86.756;2023-12-20T10:31:52;100316.29;;;5.36;30.97
55022;BME280;68328;35.990;-86.756;2023-12-20T10:34:17;100315.42;;;5.55;31.28
55022;BME280;68328;35.990;-86.756;2023-12-20T10:36:43;100315.82;;;5.29;31.27
55022;BME280;68328;35.990;-86.756;2023-12-20T10:39:10;100321.31;;;5.47;31.04
55022;BME280;68328;35.990;-86.756;2023-12-20T10:41:34;100318.58;;;5.42;30.96
55022;BME280;68328;35.990;-86.756;2023-12-20T10:44:01;100324.26;;;4.92;31.08
55022;BME280;68328;35.990;-86.756;2023-12-20T10:46:25;100323.78;;;5.17;31.19
55022;BME280;68328;35.990;-86.756;2023-12-20T10:48:52;100324.91;;;5.20;31.30
55022;BME280;68328;35.990;-86.756;2023-12-20T10:51:18;100327.45;;;5.24;31.32
55022;BME280;68328;35.990;-86.756;2023-12-20T10:53:41;100331.40;;;4.96;31.54
55022;BME280;68328;35.990;-86.756;2023-12-20T10:56:08;100333.94;;;5.39;31.69
55022;BME280;68328;35.990;-86.756;2023-12-20T10:58:34;100335.15;;;5.10;31.47
55022;BME280;68328;35.990;-86.756;2023-12-20T11:01:00;100340.78;;;5.26;31.30
55022;BME280;68328;35.990;-86.756;2023-12-20T11:03:24;100344.67;;;5.24;31.43
55022;BME280;68328;35.990;-86.756;2023-12-20T11:05:53;100343.08;;;5.23;31.63
55022;BME280;68328;35.990;-86.756;2023-12-20T11:08:26;100347.81;;;5.01;31.84
55022;BME280;68328;35.990;-86.756;2023-12-20T11:10:46;100349.13;;;5.23;31.88
55022;BME280;68328;35.990;-86.756;2023-12-20T11:13:10;100354.06;;;5.26;31.97
55022;BME280;68328;35.990;-86.756;2023-12-20T11:15:31;100353.78;;;5.06;31.91
55022;BME280;68328;35.990;-86.756;2023-12-20T11:17:58;100352.84;;;5.28;31.71
55022;BME280;68328;35.990;-86.756;2023-12-20T11:20:23;100356.20;;;5.28;31.84
55022;BME280;68328;35.990;-86.756;2023-12-20T11:22:54;100363.47;;;5.28;31.85
55022;BME280;68328;35.990;-86.756;2023-12-20T11:25:13;100368.13;;;5.19;31.63
55022;BME280;68328;35.990;-86.756;2023-12-20T11:27:42;100372.41;;;4.95;31.73
55022;BME280;68328;35.990;-86.756;2023-12-20T11:30:05;100374.49;;;5.20;31.52
55022;BME280;68328;35.990;-86.756;2023-12-20T11:32:29;100373.12;;;5.20;31.66
55022;BME280;68328;35.990;-86.756;2023-12-20T11:34:55;100373.11;;;5.13;31.64
55022;BME280;68328;35.990;-86.756;2023-12-20T11:37:22;100378.43;;;4.62;31.61
55022;BME280;68328;35.990;-86.756;2023-12-20T11:39:45;100382.68;;;5.05;31.55
55022;BME280;68328;35.990;-86.756;2023-12-20T11:42:11;100390.74;;;4.99;31.63
55022;BME280;68328;35.990;-86.756;2023-12-20T11:44:37;100398.52;;;5.09;31.54
55022;BME280;68328;35.990;-86.756;2023-12-20T11:47:02;100406.93;;;5.17;31.56
55022;BME280;68328;35.990;-86.756;2023-12-20T11:49:28;100417.52;;;4.97;31.45
55022;BME280;68328;35.990;-86.756;2023-12-20T11:51:53;100421.52;;;5.17;31.45
55022;BME280;68328;35.990;-86.756;2023-12-20T11:54:18;100425.79;;;5.11;31.45
55022;BME280;68328;35.990;-86.756;2023-12-20T11:56:46;100434.07;;;5.09;31.56
55022;BME280;68328;35.990;-86.756;2023-12-20T11:59:10;100434.92;;;5.06;31.56
55022;BME280;68328;35.990;-86.756;2023-12-20T12:01:35;100432.66;;;5.04;31.70
55022;BME280;68328;35.990;-86.756;2023-12-20T12:04:04;100436.94;;;4.75;31.76
55022;BME280;68328;35.990;-86.756;2023-12-20T12:06:27;100436.47;;;4.44;31.25
55022;BME280;68328;35.990;-86.756;2023-12-20T12:08:52;100440.09;;;4.94;31.12
55022;BME280;68328;35.990;-86.756;2023-12-20T12:11:18;100445.33;;;4.93;31.34
55022;BME280;68328;35.990;-86.756;2023-12-20T12:13:44;100442.50;;;4.96;31.47
55022;BME280;68328;35.990;-86.756;2023-12-20T12:16:08;100439.84;;;4.99;31.00
55022;BME280;68328;35.990;-86.756;2023-12-20T12:18:35;100443.62;;;4.95;30.84
55022;BME280;68328;35.990;-86.756;2023-12-20T12:21:03;100449.24;;;4.66;31.10
55022;BME280;68328;35.990;-86.756;2023-12-20T12:23:24;100449.70;;;4.88;31.15
55022;BME280;68328;35.990;-86.756;2023-12-20T12:25:50;100449.22;;;4.88;31.35
55022;BME280;68328;35.990;-86.756;2023-12-20T12:28:16;100449.68;;;4.96;31.28
55022;BME280;68328;35.990;-86.756;2023-12-20T12:30:41;100448.29;;;4.98;31.31